sensor_id;sensor_type;location;lat;lon;timestamp;P1;durP1;ratioP1;P2;durP2;ratioP2
7306;SDS011;3694;48.732;9.248;2023-04-24T00:00:16;0.80;;;0.80;;
7306;SDS011;3694;48.732;9.248;2023-04-24T00:02:43;1.70;;;0.70;;
7306;SDS011;3694;48.732;9.248;2023-04-24T00:05:12;0.67;;;0.60;;
7306;SDS011;3694;48.732;9.248;2023-04-24T00:07:42;0.97;;;0.80;;
7306;SDS011;3694;48.732;9.248;2023-04-24T00:10:09;0.90;;;0.70;;
7306;SDS011;3694;48.732;9.248;2023-04-24T00:12:36;1.33;;;0.70;;
7306;SDS011;3694;48.732;9.248;2023-04-24T00:15:02;1.07;;;0.70;;
7306;SDS011;3694;48.732;9.248;2023-04-24T00:17:28;1.37;;;0.60;;
7306;SDS011;3694;48.732;9.248;2023-04-24T00:19:53;1.07;;;0.60;;
7306;SDS011;3694;48.732;9.248;2023-04-24T00:22:23;0.57;;;0.57;;
7306;SDS011;3694;48.732;9.248;2023-04-24T00:24:49;0.70;;;0.70;;
7306;SDS011;3694;48.732;9.248;2023-04-24T00:27:15;0.70;;;0.70;;
7306;SDS011;3694;48.732;9.248;2023-04-24T00:29:40;0.70;;;0.70;;
7306;SDS011;3694;48.732;9.248;2023-04-24T00:32:06;0.80;;;0.80;;
7306;SDS011;3694;48.732;9.248;2023-04-24T00:34:32;1.20;;;0.87;;
7306;SDS011;3694;48.732;9.248;2023-04-24T00:36:57;1.13;;;0.90;;
7306;SDS011;3694;48.732;9.248;2023-04-24T00:39:23;1.03;;;0.80;;
7306;SDS011;3694;48.732;9.248;2023-04-24T00:41:48;0.60;;;0.60;;
7306;SDS011;3694;48.732;9.248;2023-04-24T00:44:15;1.00;;;0.70;;
7306;SDS011;3694;48.732;9.248;2023-04-24T00:46:41;0.80;;;0.80;;
7306;SDS011;3694;48.732;9.248;2023-04-24T00:49:07;1.63;;;0.93;;
7306;SDS011;3694;48.732;9.248;2023-04-24T00:51:33;0.60;;;0.60;;
7306;SDS011;3694;48.732;9.248;2023-04-24T00:53:59;2.13;;;0.77;;
7306;SDS011;3694;48.732;9.248;2023-04-24T00:56:25;1.33;;;0.70;;
7306;SDS011;3694;48.732;9.248;2023-04-24T00:58:51;0.90;;;0.70;;
7306;SDS011;3694;48.732;9.248;2023-04-24T01:01:21;1.43;;;0.80;;
7306;SDS011;3694;48.732;9.248;2023-04-24T01:03:47;1.17;;;0.57;;
7306;SDS011;3694;48.732;9.248;2023-04-24T01:06:15;0.70;;;0.70;;
7306;SDS011;3694;48.732;9.248;2023-04-24T01:08:41;0.60;;;0.60;;
7306;SDS011;3694;48.732;9.248;2023-04-24T01:11:07;0.40;;;0.40;;
7306;SDS011;3694;48.732;9.248;2023-04-24T01:13:33;1.23;;;0.70;;
7306;SDS011;3694;48.732;9.248;2023-04-24T01:15:58;1.13;;;0.60;;
7306;SDS011;3694;48.732;9.248;2023-04-24T01:18:25;1.57;;;0.80;;
7306;SDS011;3694;48.732;9.248;2023-04-24T01:20:52;0.93;;;0.70;;
7306;SDS011;3694;48.732;9.248;2023-04-24T01:23:20;0.83;;;0.67;;
7306;SDS011;3694;48.732;9.248;2023-04-24T01:25:46;0.70;;;0.60;;
7306;SDS011;3694;48.732;9.248;2023-04-24T01:28:13;2.17;;;0.57;;
7306;SDS011;3694;48.732;9.248;2023-04-24T01:30:39;0.50;;;0.47;;
7306;SDS011;3694;48.732;9.248;2023-04-24T01:33:04;0.70;;;0.70;;
7306;SDS011;3694;48.732;9.248;2023-04-24T01:35:30;0.97;;;0.53;;
7306;SDS011;3694;48.732;9.248;2023-04-24T01:37:56;0.40;;;0.40;;
7306;SDS011;3694;48.732;9.248;2023-04-24T01:40:21;0.93;;;0.70;;
7306;SDS011;3694;48.732;9.248;2023-04-24T01:42:47;1.13;;;0.80;;
7306;SDS011;3694;48.732;9.248;2023-04-24T01:45:13;1.33;;;0.93;;
7306;SDS011;3694;48.732;9.248;2023-04-24T01:47:38;1.40;;;0.80;;
7306;SDS011;3694;48.732;9.248;2023-04-24T01:50:05;0.87;;;0.67;;
7306;SDS011;3694;48.732;9.248;2023-04-24T01:52:31;0.57;;;0.57;;
7306;SDS011;3694;48.732;9.248;2023-04-24T01:55:00;0.73;;;0.50;;
7306;SDS011;3694;48.732;9.248;2023-04-24T01:57:28;0.53;;;0.50;;
7306;SDS011;3694;48.732;9.248;2023-04-24T01:59:55;1.30;;;0.90;;
7306;SDS011;3694;48.732;9.248;2023-04-24T02:02:21;1.50;;;0.83;;
7306;SDS011;3694;48.732;9.248;2023-04-24T02:04:48;1.00;;;0.73;;
7306;SDS011;3694;48.732;9.248;2023-04-24T02:07:14;0.97;;;0.70;;
7306;SDS011;3694;48.732;9.248;2023-04-24T02:09:40;0.87;;;0.67;;
7306;SDS011;3694;48.732;9.248;2023-04-24T02:12:06;0.67;;;0.60;;
7306;SDS011;3694;48.732;9.248;2023-04-24T02:14:31;1.60;;;0.70;;
7306;SDS011;3694;48.732;9.248;2023-04-24T02:16:57;1.37;;;0.57;;
7306;SDS011;3694;48.732;9.248;2023-04-24T02:19:22;1.57;;;0.80;;
7306;SDS011;3694;48.732;9.248;2023-04-24T02:21:48;0.70;;;0.70;;
7306;SDS011;3694;48.732;9.248;2023-04-24T02:24:13;0.60;;;0.60;;
7306;SDS011;3694;48.732;9.248;2023-04-24T02:26:39;1.30;;;0.60;;
7306;SDS011;3694;48.732;9.248;2023-04-24T02:29:05;0.77;;;0.77;;
7306;SDS011;3694;48.732;9.248;2023-04-24T02:31:30;0.80;;;0.60;;
7306;SDS011;3694;48.732;9.248;2023-04-24T02:33:56;0.77;;;0.40;;
7306;SDS011;3694;48.732;9.248;2023-04-24T02:36:21;1.90;;;0.60;;
7306;SDS011;3694;48.732;9.248;2023-04-24T02:38:47;1.13;;;0.70;;
7306;SDS011;3694;48.732;9.248;2023-04-24T02:41:12;0.70;;;0.70;;
7306;SDS011;3694;48.732;9.248;2023-04-24T02:43:38;0.50;;;0.40;;
7306;SDS011;3694;48.732;9.248;2023-04-24T02:46:03;0.50;;;0.50;;
7306;SDS011;3694;48.732;9.248;2023-04-24T02:48:29;0.53;;;0.50;;
7306;SDS011;3694;48.732;9.248;2023-04-24T02:50:55;1.10;;;0.63;;
7306;SDS011;3694;48.732;9.248;2023-04-24T02:53:20;1.93;;;0.80;;
7306;SDS011;3694;48.732;9.248;2023-04-24T02:55:46;0.60;;;0.60;;
7306;SDS011;3694;48.732;9.248;2023-04-24T02:58:11;0.60;;;0.60;;
7306;SDS011;3694;48.732;9.248;2023-04-24T03:00:38;0.70;;;0.63;;
7306;SDS011;3694;48.732;9.248;2023-04-24T03:03:04;1.70;;;0.70;;
7306;SDS011;3694;48.732;9.248;2023-04-24T03:05:30;2.00;;;0.70;;
7306;SDS011;3694;48.732;9.248;2023-04-24T03:07:56;1.70;;;1.00;;
7306;SDS011;3694;48.732;9.248;2023-04-24T03:10:21;0.53;;;0.53;;
7306;SDS011;3694;48.732;9.248;2023-04-24T03:12:50;2.27;;;0.90;;
7306;SDS011;3694;48.732;9.248;2023-04-24T03:15:16;1.23;;;0.60;;
7306;SDS011;3694;48.732;9.248;2023-04-24T03:17:41;1.23;;;0.63;;
7306;SDS011;3694;48.732;9.248;2023-04-24T03:20:08;2.03;;;0.80;;
7306;SDS011;3694;48.732;9.248;2023-04-24T03:22:34;0.60;;;0.60;;
7306;SDS011;3694;48.732;9.248;2023-04-24T03:25:00;0.70;;;0.70;;
7306;SDS011;3694;48.732;9.248;2023-04-24T03:27:26;1.50;;;0.80;;
7306;SDS011;3694;48.732;9.248;2023-04-24T03:29:52;1.13;;;0.60;;
7306;SDS011;3694;48.732;9.248;2023-04-24T03:32:20;0.50;;;0.50;;
7306;SDS011;3694;48.732;9.248;2023-04-24T03:34:46;2.30;;;0.60;;
7306;SDS011;3694;48.732;9.248;2023-04-24T03:37:11;1.07;;;0.97;;
7306;SDS011;3694;48.732;9.248;2023-04-24T03:39:37;2.10;;;0.90;;
7306;SDS011;3694;48.732;9.248;2023-04-24T03:42:02;1.90;;;0.73;;
7306;SDS011;3694;48.732;9.248;2023-04-24T03:44:28;0.60;;;0.60;;
7306;SDS011;3694;48.732;9.248;2023-04-24T03:46:53;1.10;;;0.60;;
7306;SDS011;3694;48.732;9.248;2023-04-24T03:49:19;1.23;;;0.70;;
7306;SDS011;3694;48.732;9.248;2023-04-24T03:51:45;0.60;;;0.60;;
7306;SDS011;3694;48.732;9.248;2023-04-24T03:54:10;0.80;;;0.80;;
7306;SDS011;3694;48.732;9.248;2023-04-24T03:56:36;1.00;;;0.87;;
7306;SDS011;3694;48.732;9.248;2023-04-24T03:59:02;0.87;;;0.70;;
7306;SDS011;3694;48.732;9.248;2023-04-24T04:01:27;0.40;;;0.40;;
7306;SDS011;3694;48.732;9.248;2023-04-24T04:03:53;1.07;;;0.80;;
7306;SDS011;3694;48.732;9.248;2023-04-24T04:06:18;1.23;;;0.80;;
7306;SDS011;3694;48.732;9.248;2023-04-24T04:08:44;0.97;;;0.87;;
7306;SDS011;3694;48.732;9.248;2023-04-24T04:11:10;0.80;;;0.80;;
7306;SDS011;3694;48.732;9.248;2023-04-24T04:13:35;0.83;;;0.80;;
7306;SDS011;3694;48.732;9.248;2023-04-24T04:16:01;0.77;;;0.73;;
7306;SDS011;3694;48.732;9.248;2023-04-24T04:18:26;1.03;;;0.80;;
7306;SDS011;3694;48.732;9.248;2023-04-24T04:20:52;2.73;;;0.83;;
7306;SDS011;3694;48.732;9.248;2023-04-24T04:23:17;1.97;;;1.03;;
7306;SDS011;3694;48.732;9.248;2023-04-24T04:25:43;0.97;;;0.90;;
7306;SDS011;3694;48.732;9.248;2023-04-24T04:28:08;1.60;;;0.60;;
7306;SDS011;3694;48.732;9.248;2023-04-24T04:30:34;1.33;;;0.90;;
7306;SDS011;3694;48.732;9.248;2023-04-24T04:33:00;3.53;;;0.90;;
7306;SDS011;3694;48.732;9.248;2023-04-24T04:35:26;1.77;;;0.80;;
7306;SDS011;3694;48.732;9.248;2023-04-24T04:37:51;0.93;;;0.80;;
7306;SDS011;3694;48.732;9.248;2023-04-24T04:40:17;1.20;;;1.07;;
7306;SDS011;3694;48.732;9.248;2023-04-24T04:42:43;0.60;;;0.60;;
7306;SDS011;3694;48.732;9.248;2023-04-24T04:45:10;2.03;;;0.97;;
7306;SDS011;3694;48.732;9.248;2023-04-24T04:47:36;1.33;;;0.83;;
7306;SDS011;3694;48.732;9.248;2023-04-24T04:50:03;2.00;;;1.10;;
7306;SDS011;3694;48.732;9.248;2023-04-24T04:52:30;1.63;;;1.00;;
7306;SDS011;3694;48.732;9.248;2023-04-24T04:54:56;1.30;;;1.17;;
7306;SDS011;3694;48.732;9.248;2023-04-24T04:57:21;1.37;;;1.30;;
7306;SDS011;3694;48.732;9.248;2023-04-24T04:59:47;1.53;;;1.40;;
7306;SDS011;3694;48.732;9.248;2023-04-24T05:02:12;1.50;;;1.30;;
7306;SDS011;3694;48.732;9.248;2023-04-24T05:04:38;1.57;;;1.47;;
7306;SDS011;3694;48.732;9.248;2023-04-24T05:07:03;1.53;;;1.37;;
7306;SDS011;3694;48.732;9.248;2023-04-24T05:09:29;2.03;;;1.50;;
7306;SDS011;3694;48.732;9.248;2023-04-24T05:11:55;1.30;;;1.20;;
7306;SDS011;3694;48.732;9.248;2023-04-24T05:14:21;1.77;;;1.30;;
7306;SDS011;3694;48.732;9.248;2023-04-24T05:16:47;1.70;;;1.17;;
7306;SDS011;3694;48.732;9.248;2023-04-24T05:19:12;2.20;;;1.37;;
7306;SDS011;3694;48.732;9.248;2023-04-24T05:21:39;1.50;;;1.40;;
7306;SDS011;3694;48.732;9.248;2023-04-24T05:24:05;1.47;;;1.20;;
7306;SDS011;3694;48.732;9.248;2023-04-24T05:26:31;2.33;;;1.70;;
7306;SDS011;3694;48.732;9.248;2023-04-24T05:28:56;1.80;;;1.70;;
7306;SDS011;3694;48.732;9.248;2023-04-24T05:31:22;1.57;;;1.30;;
7306;SDS011;3694;48.732;9.248;2023-04-24T05:33:48;1.43;;;1.33;;
7306;SDS011;3694;48.732;9.248;2023-04-24T05:36:13;2.03;;;1.40;;
7306;SDS011;3694;48.732;9.248;2023-04-24T05:38:39;1.70;;;1.40;;
7306;SDS011;3694;48.732;9.248;2023-04-24T05:41:04;1.37;;;1.27;;
7306;SDS011;3694;48.732;9.248;2023-04-24T05:43:30;1.60;;;1.50;;
7306;SDS011;3694;48.732;9.248;2023-04-24T05:45:55;2.03;;;1.57;;
7306;SDS011;3694;48.732;9.248;2023-04-24T05:48:21;1.50;;;1.30;;
7306;SDS011;3694;48.732;9.248;2023-04-24T05:50:47;1.67;;;1.57;;
7306;SDS011;3694;48.732;9.248;2023-04-24T05:53:13;2.77;;;1.53;;
7306;SDS011;3694;48.732;9.248;2023-04-24T05:55:38;1.70;;;1.60;;
7306;SDS011;3694;48.732;9.248;2023-04-24T05:58:04;1.50;;;1.40;;
7306;SDS011;3694;48.732;9.248;2023-04-24T06:00:31;1.77;;;1.67;;
7306;SDS011;3694;48.732;9.248;2023-04-24T06:02:57;1.70;;;1.60;;
7306;SDS011;3694;48.732;9.248;2023-04-24T06:05:23;1.80;;;1.70;;
7306;SDS011;3694;48.732;9.248;2023-04-24T06:07:49;1.60;;;1.50;;
7306;SDS011;3694;48.732;9.248;2023-04-24T06:10:14;2.40;;;2.20;;
7306;SDS011;3694;48.732;9.248;2023-04-24T06:18:38;2.57;;;2.37;;
7306;SDS011;3694;48.732;9.248;2023-04-24T06:23:46;2.53;;;2.10;;
7306;SDS011;3694;48.732;9.248;2023-04-24T06:26:12;3.67;;;2.20;;
7306;SDS011;3694;48.732;9.248;2023-04-24T06:28:37;2.33;;;2.00;;
7306;SDS011;3694;48.732;9.248;2023-04-24T06:31:03;1.67;;;1.57;;
7306;SDS011;3694;48.732;9.248;2023-04-24T06:33:28;1.63;;;1.53;;
7306;SDS011;3694;48.732;9.248;2023-04-24T06:35:54;1.20;;;1.10;;
7306;SDS011;3694;48.732;9.248;2023-04-24T06:38:20;1.17;;;1.07;;
7306;SDS011;3694;48.732;9.248;2023-04-24T06:40:45;1.70;;;1.33;;
7306;SDS011;3694;48.732;9.248;2023-04-24T06:43:13;1.67;;;1.23;;
7306;SDS011;3694;48.732;9.248;2023-04-24T06:48:24;1.73;;;0.90;;
7306;SDS011;3694;48.732;9.248;2023-04-24T06:50:50;1.23;;;1.10;;
7306;SDS011;3694;48.732;9.248;2023-04-24T06:53:16;0.87;;;0.70;;
7306;SDS011;3694;48.732;9.248;2023-04-24T06:55:42;1.73;;;0.90;;
7306;SDS011;3694;48.732;9.248;2023-04-24T06:58:11;1.23;;;1.13;;
7306;SDS011;3694;48.732;9.248;2023-04-24T07:00:37;1.57;;;1.00;;
7306;SDS011;3694;48.732;9.248;2023-04-24T07:03:13;1.07;;;0.90;;
7306;SDS011;3694;48.732;9.248;2023-04-24T07:05:39;1.07;;;0.97;;
7306;SDS011;3694;48.732;9.248;2023-04-24T07:08:20;1.00;;;1.00;;
7306;SDS011;3694;48.732;9.248;2023-04-24T07:10:51;4.63;;;1.30;;
7306;SDS011;3694;48.732;9.248;2023-04-24T07:13:17;1.03;;;0.93;;
7306;SDS011;3694;48.732;9.248;2023-04-24T07:15:45;1.37;;;1.27;;
7306;SDS011;3694;48.732;9.248;2023-04-24T07:18:11;1.17;;;0.87;;
7306;SDS011;3694;48.732;9.248;2023-04-24T07:20:51;1.03;;;1.00;;
7306;SDS011;3694;48.732;9.248;2023-04-24T07:23:17;1.80;;;1.13;;
7306;SDS011;3694;48.732;9.248;2023-04-24T07:25:44;0.87;;;0.87;;
7306;SDS011;3694;48.732;9.248;2023-04-24T07:28:10;1.53;;;1.10;;
7306;SDS011;3694;48.732;9.248;2023-04-24T07:30:35;1.67;;;1.27;;
7306;SDS011;3694;48.732;9.248;2023-04-24T07:33:01;0.70;;;0.70;;
7306;SDS011;3694;48.732;9.248;2023-04-24T07:35:26;0.80;;;0.80;;
7306;SDS011;3694;48.732;9.248;2023-04-24T07:37:52;0.93;;;0.90;;
7306;SDS011;3694;48.732;9.248;2023-04-24T07:40:19;1.47;;;0.87;;
7306;SDS011;3694;48.732;9.248;2023-04-24T07:42:45;0.90;;;0.90;;
7306;SDS011;3694;48.732;9.248;2023-04-24T07:45:13;1.40;;;1.30;;
7306;SDS011;3694;48.732;9.248;2023-04-24T07:47:39;1.30;;;1.20;;
7306;SDS011;3694;48.732;9.248;2023-04-24T07:50:08;1.03;;;0.80;;
7306;SDS011;3694;48.732;9.248;2023-04-24T07:52:34;0.93;;;0.80;;
7306;SDS011;3694;48.732;9.248;2023-04-24T07:55:03;1.17;;;0.90;;
7306;SDS011;3694;48.732;9.248;2023-04-24T07:57:35;0.93;;;0.80;;
7306;SDS011;3694;48.732;9.248;2023-04-24T08:00:19;1.03;;;0.90;;
7306;SDS011;3694;48.732;9.248;2023-04-24T08:02:47;2.47;;;0.83;;
7306;SDS011;3694;48.732;9.248;2023-04-24T08:05:13;0.63;;;0.63;;
7306;SDS011;3694;48.732;9.248;2023-04-24T08:07:46;0.80;;;0.80;;
7306;SDS011;3694;48.732;9.248;2023-04-24T08:10:16;1.23;;;0.70;;
7306;SDS011;3694;48.732;9.248;2023-04-24T08:12:42;1.10;;;0.80;;
7306;SDS011;3694;48.732;9.248;2023-04-24T08:15:08;0.77;;;0.77;;
7306;SDS011;3694;48.732;9.248;2023-04-24T08:17:36;0.90;;;0.90;;
7306;SDS011;3694;48.732;9.248;2023-04-24T08:20:14;0.80;;;0.80;;
7306;SDS011;3694;48.732;9.248;2023-04-24T08:22:40;1.10;;;0.70;;
7306;SDS011;3694;48.732;9.248;2023-04-24T08:25:06;0.87;;;0.87;;
7306;SDS011;3694;48.732;9.248;2023-04-24T08:27:32;1.40;;;1.13;;
7306;SDS011;3694;48.732;9.248;2023-04-24T08:29:58;1.43;;;0.90;;
7306;SDS011;3694;48.732;9.248;2023-04-24T08:32:25;0.97;;;0.97;;
7306;SDS011;3694;48.732;9.248;2023-04-24T08:34:53;1.53;;;0.90;;
7306;SDS011;3694;48.732;9.248;2023-04-24T08:37:25;0.80;;;0.80;;
7306;SDS011;3694;48.732;9.248;2023-04-24T08:39:51;1.10;;;0.80;;
7306;SDS011;3694;48.732;9.248;2023-04-24T08:42:17;1.17;;;0.90;;
7306;SDS011;3694;48.732;9.248;2023-04-24T08:44:44;0.60;;;0.60;;
7306;SDS011;3694;48.732;9.248;2023-04-24T08:47:10;1.03;;;0.77;;
7306;SDS011;3694;48.732;9.248;2023-04-24T08:49:37;0.80;;;0.80;;
7306;SDS011;3694;48.732;9.248;2023-04-24T08:52:04;0.70;;;0.70;;
7306;SDS011;3694;48.732;9.248;2023-04-24T08:54:31;1.03;;;0.93;;
7306;SDS011;3694;48.732;9.248;2023-04-24T08:56:59;0.90;;;0.90;;
7306;SDS011;3694;48.732;9.248;2023-04-24T08:59:29;0.60;;;0.60;;
7306;SDS011;3694;48.732;9.248;2023-04-24T09:01:58;1.10;;;0.93;;
7306;SDS011;3694;48.732;9.248;2023-04-24T09:04:24;1.63;;;1.00;;
7306;SDS011;3694;48.732;9.248;2023-04-24T09:06:52;0.90;;;0.67;;
7306;SDS011;3694;48.732;9.248;2023-04-24T09:09:21;1.00;;;1.00;;
7306;SDS011;3694;48.732;9.248;2023-04-24T09:11:50;3.63;;;1.10;;
7306;SDS011;3694;48.732;9.248;2023-04-24T09:14:27;2.20;;;1.17;;
7306;SDS011;3694;48.732;9.248;2023-04-24T09:17:17;1.33;;;1.00;;
7306;SDS011;3694;48.732;9.248;2023-04-24T09:19:43;2.40;;;1.43;;
7306;SDS011;3694;48.732;9.248;2023-04-24T09:22:15;0.60;;;0.60;;
7306;SDS011;3694;48.732;9.248;2023-04-24T09:24:45;0.80;;;0.77;;
7306;SDS011;3694;48.732;9.248;2023-04-24T09:27:22;0.80;;;0.70;;
7306;SDS011;3694;48.732;9.248;2023-04-24T09:29:56;0.87;;;0.87;;
7306;SDS011;3694;48.732;9.248;2023-04-24T09:32:24;1.17;;;1.00;;
7306;SDS011;3694;48.732;9.248;2023-04-24T09:35:04;1.80;;;1.20;;
7306;SDS011;3694;48.732;9.248;2023-04-24T09:37:34;1.67;;;1.30;;
7306;SDS011;3694;48.732;9.248;2023-04-24T09:40:07;0.70;;;0.70;;
7306;SDS011;3694;48.732;9.248;2023-04-24T09:43:01;1.03;;;0.93;;
7306;SDS011;3694;48.732;9.248;2023-04-24T09:45:28;1.10;;;1.00;;
7306;SDS011;3694;48.732;9.248;2023-04-24T09:48:00;0.97;;;0.50;;
7306;SDS011;3694;48.732;9.248;2023-04-24T09:50:26;0.63;;;0.50;;
7306;SDS011;3694;48.732;9.248;2023-04-24T09:52:59;0.60;;;0.57;;
7306;SDS011;3694;48.732;9.248;2023-04-24T09:55:27;0.70;;;0.63;;
7306;SDS011;3694;48.732;9.248;2023-04-24T09:57:57;1.63;;;0.83;;
7306;SDS011;3694;48.732;9.248;2023-04-24T10:00:25;0.70;;;0.70;;
7306;SDS011;3694;48.732;9.248;2023-04-24T10:02:59;1.03;;;0.50;;
7306;SDS011;3694;48.732;9.248;2023-04-24T10:05:29;0.83;;;0.70;;
7306;SDS011;3694;48.732;9.248;2023-04-24T10:07:57;1.73;;;0.73;;
7306;SDS011;3694;48.732;9.248;2023-04-24T10:10:34;0.57;;;0.53;;
7306;SDS011;3694;48.732;9.248;2023-04-24T10:13:03;0.90;;;0.90;;
7306;SDS011;3694;48.732;9.248;2023-04-24T10:15:29;0.50;;;0.50;;
7306;SDS011;3694;48.732;9.248;2023-04-24T10:17:57;1.33;;;0.40;;
7306;SDS011;3694;48.732;9.248;2023-04-24T10:20:24;0.70;;;0.63;;
7306;SDS011;3694;48.732;9.248;2023-04-24T10:22:53;0.90;;;0.90;;
7306;SDS011;3694;48.732;9.248;2023-04-24T10:25:19;0.70;;;0.70;;
7306;SDS011;3694;48.732;9.248;2023-04-24T10:27:53;1.17;;;0.80;;
7306;SDS011;3694;48.732;9.248;2023-04-24T10:30:24;0.60;;;0.60;;
7306;SDS011;3694;48.732;9.248;2023-04-24T10:32:53;0.63;;;0.50;;
7306;SDS011;3694;48.732;9.248;2023-04-24T10:35:19;0.70;;;0.70;;
7306;SDS011;3694;48.732;9.248;2023-04-24T10:40:26;2.07;;;0.63;;
7306;SDS011;3694;48.732;9.248;2023-04-24T10:42:55;0.60;;;0.60;;
7306;SDS011;3694;48.732;9.248;2023-04-24T10:45:21;0.67;;;0.60;;
7306;SDS011;3694;48.732;9.248;2023-04-24T10:47:52;0.70;;;0.70;;
7306;SDS011;3694;48.732;9.248;2023-04-24T10:50:18;0.77;;;0.63;;
7306;SDS011;3694;48.732;9.248;2023-04-24T10:52:48;0.40;;;0.40;;
7306;SDS011;3694;48.732;9.248;2023-04-24T10:55:39;0.50;;;0.50;;
7306;SDS011;3694;48.732;9.248;2023-04-24T10:58:08;3.60;;;0.70;;
7306;SDS011;3694;48.732;9.248;2023-04-24T11:00:36;0.73;;;0.73;;
7306;SDS011;3694;48.732;9.248;2023-04-24T11:03:06;0.73;;;0.60;;
7306;SDS011;3694;48.732;9.248;2023-04-24T11:06:09;2.00;;;0.50;;
7306;SDS011;3694;48.732;9.248;2023-04-24T11:08:45;2.60;;;0.87;;
7306;SDS011;3694;48.732;9.248;2023-04-24T11:16:35;2.23;;;0.90;;
7306;SDS011;3694;48.732;9.248;2023-04-24T11:19:04;0.53;;;0.47;;
7306;SDS011;3694;48.732;9.248;2023-04-24T11:21:42;0.60;;;0.60;;
7306;SDS011;3694;48.732;9.248;2023-04-24T11:24:30;0.70;;;0.70;;
7306;SDS011;3694;48.732;9.248;2023-04-24T11:29:39;0.80;;;0.80;;
7306;SDS011;3694;48.732;9.248;2023-04-24T11:35:18;1.60;;;0.90;;
7306;SDS011;3694;48.732;9.248;2023-04-24T11:38:04;2.07;;;0.63;;
7306;SDS011;3694;48.732;9.248;2023-04-24T11:40:30;1.07;;;0.90;;
7306;SDS011;3694;48.732;9.248;2023-04-24T11:42:56;1.30;;;0.97;;
7306;SDS011;3694;48.732;9.248;2023-04-24T11:45:31;1.87;;;1.03;;
7306;SDS011;3694;48.732;9.248;2023-04-24T11:47:56;0.70;;;0.70;;
7306;SDS011;3694;48.732;9.248;2023-04-24T11:50:24;0.80;;;0.80;;
7306;SDS011;3694;48.732;9.248;2023-04-24T11:52:57;0.87;;;0.70;;
7306;SDS011;3694;48.732;9.248;2023-04-24T11:55:25;1.70;;;0.90;;
7306;SDS011;3694;48.732;9.248;2023-04-24T11:57:55;7.40;;;4.43;;
7306;SDS011;3694;48.732;9.248;2023-04-24T12:00:23;2.77;;;2.17;;
7306;SDS011;3694;48.732;9.248;2023-04-24T12:02:51;3.47;;;2.60;;
7306;SDS011;3694;48.732;9.248;2023-04-24T12:05:23;10.73;;;5.87;;
7306;SDS011;3694;48.732;9.248;2023-04-24T12:07:50;6.17;;;3.23;;
7306;SDS011;3694;48.732;9.248;2023-04-24T12:10:20;11.10;;;5.53;;
7306;SDS011;3694;48.732;9.248;2023-04-24T12:12:50;1.53;;;1.00;;
7306;SDS011;3694;48.732;9.248;2023-04-24T12:15:39;1.30;;;1.20;;
7306;SDS011;3694;48.732;9.248;2023-04-24T12:18:23;1.60;;;1.50;;
7306;SDS011;3694;48.732;9.248;2023-04-24T12:20:49;1.13;;;1.10;;
7306;SDS011;3694;48.732;9.248;2023-04-24T12:29:31;0.97;;;0.87;;
7306;SDS011;3694;48.732;9.248;2023-04-24T12:32:17;1.40;;;1.30;;
7306;SDS011;3694;48.732;9.248;2023-04-24T12:34:53;1.60;;;1.47;;
7306;SDS011;3694;48.732;9.248;2023-04-24T12:37:43;2.17;;;2.00;;
7306;SDS011;3694;48.732;9.248;2023-04-24T12:40:12;2.03;;;1.47;;
7306;SDS011;3694;48.732;9.248;2023-04-24T12:42:42;1.97;;;1.87;;
7306;SDS011;3694;48.732;9.248;2023-04-24T12:45:11;2.00;;;1.77;;
7306;SDS011;3694;48.732;9.248;2023-04-24T12:47:37;2.83;;;1.60;;
7306;SDS011;3694;48.732;9.248;2023-04-24T12:50:09;3.13;;;2.50;;
7306;SDS011;3694;48.732;9.248;2023-04-24T12:52:48;1.70;;;1.60;;
7306;SDS011;3694;48.732;9.248;2023-04-24T12:55:14;2.33;;;2.07;;
7306;SDS011;3694;48.732;9.248;2023-04-24T12:57:50;1.20;;;1.10;;
7306;SDS011;3694;48.732;9.248;2023-04-24T13:00:24;2.10;;;1.33;;
7306;SDS011;3694;48.732;9.248;2023-04-24T13:02:50;2.07;;;1.87;;
7306;SDS011;3694;48.732;9.248;2023-04-24T13:08:29;0.80;;;0.80;;
7306;SDS011;3694;48.732;9.248;2023-04-24T13:10:57;1.57;;;1.03;;
7306;SDS011;3694;48.732;9.248;2023-04-24T13:13:23;1.70;;;1.33;;
7306;SDS011;3694;48.732;9.248;2023-04-24T13:15:48;1.20;;;1.10;;
7306;SDS011;3694;48.732;9.248;2023-04-24T13:18:14;1.43;;;1.33;;
7306;SDS011;3694;48.732;9.248;2023-04-24T13:20:40;1.40;;;1.30;;
7306;SDS011;3694;48.732;9.248;2023-04-24T13:23:13;1.33;;;1.07;;
7306;SDS011;3694;48.732;9.248;2023-04-24T13:25:50;1.40;;;1.40;;
7306;SDS011;3694;48.732;9.248;2023-04-24T13:28:30;1.97;;;1.87;;
7306;SDS011;3694;48.732;9.248;2023-04-24T13:30:55;1.70;;;1.47;;
7306;SDS011;3694;48.732;9.248;2023-04-24T13:33:23;1.80;;;1.60;;
7306;SDS011;3694;48.732;9.248;2023-04-24T13:35:54;2.00;;;1.90;;
7306;SDS011;3694;48.732;9.248;2023-04-24T13:38:20;1.37;;;1.00;;
7306;SDS011;3694;48.732;9.248;2023-04-24T13:40:47;1.20;;;1.20;;
7306;SDS011;3694;48.732;9.248;2023-04-24T13:43:12;1.93;;;1.47;;
7306;SDS011;3694;48.732;9.248;2023-04-24T13:45:41;0.90;;;0.90;;
7306;SDS011;3694;48.732;9.248;2023-04-24T13:48:12;2.67;;;1.40;;
7306;SDS011;3694;48.732;9.248;2023-04-24T13:50:40;2.00;;;1.00;;
7306;SDS011;3694;48.732;9.248;2023-04-24T13:53:06;1.90;;;1.27;;
7306;SDS011;3694;48.732;9.248;2023-04-24T13:55:43;2.67;;;1.47;;
7306;SDS011;3694;48.732;9.248;2023-04-24T13:58:17;1.50;;;1.17;;
7306;SDS011;3694;48.732;9.248;2023-04-24T14:00:42;1.67;;;1.20;;
7306;SDS011;3694;48.732;9.248;2023-04-24T14:03:08;1.40;;;1.30;;
7306;SDS011;3694;48.732;9.248;2023-04-24T14:05:36;1.60;;;1.50;;
7306;SDS011;3694;48.732;9.248;2023-04-24T14:08:07;1.47;;;1.37;;
7306;SDS011;3694;48.732;9.248;2023-04-24T14:10:33;1.60;;;1.50;;
7306;SDS011;3694;48.732;9.248;2023-04-24T14:12:59;1.83;;;1.60;;
7306;SDS011;3694;48.732;9.248;2023-04-24T14:15:32;1.80;;;1.50;;
7306;SDS011;3694;48.732;9.248;2023-04-24T14:17:57;2.30;;;1.40;;
7306;SDS011;3694;48.732;9.248;2023-04-24T14:20:23;1.20;;;1.10;;
7306;SDS011;3694;48.732;9.248;2023-04-24T14:22:54;2.30;;;1.10;;
7306;SDS011;3694;48.732;9.248;2023-04-24T14:25:29;1.20;;;1.10;;
7306;SDS011;3694;48.732;9.248;2023-04-24T14:28:21;1.27;;;1.20;;
7306;SDS011;3694;48.732;9.248;2023-04-24T14:30:47;2.30;;;2.10;;
7306;SDS011;3694;48.732;9.248;2023-04-24T14:33:13;1.67;;;1.57;;
7306;SDS011;3694;48.732;9.248;2023-04-24T14:38:31;1.77;;;1.67;;
7306;SDS011;3694;48.732;9.248;2023-04-24T14:41:02;2.00;;;1.80;;
7306;SDS011;3694;48.732;9.248;2023-04-24T14:43:34;2.43;;;1.67;;
7306;SDS011;3694;48.732;9.248;2023-04-24T14:46:03;2.90;;;2.60;;
7306;SDS011;3694;48.732;9.248;2023-04-24T14:48:45;1.67;;;1.57;;
7306;SDS011;3694;48.732;9.248;2023-04-24T14:54:08;2.07;;;1.97;;
7306;SDS011;3694;48.732;9.248;2023-04-24T14:56:40;1.50;;;1.40;;
7306;SDS011;3694;48.732;9.248;2023-04-24T14:59:29;1.40;;;1.30;;
7306;SDS011;3694;48.732;9.248;2023-04-24T15:06:04;2.10;;;1.90;;
7306;SDS011;3694;48.732;9.248;2023-04-24T15:08:30;3.73;;;2.40;;
7306;SDS011;3694;48.732;9.248;2023-04-24T15:10:56;2.17;;;1.87;;
7306;SDS011;3694;48.732;9.248;2023-04-24T15:13:21;2.30;;;2.03;;
7306;SDS011;3694;48.732;9.248;2023-04-24T15:15:47;2.70;;;2.13;;
7306;SDS011;3694;48.732;9.248;2023-04-24T15:18:12;4.67;;;2.20;;
7306;SDS011;3694;48.732;9.248;2023-04-24T15:20:38;3.07;;;2.50;;
7306;SDS011;3694;48.732;9.248;2023-04-24T15:23:05;2.70;;;2.50;;
7306;SDS011;3694;48.732;9.248;2023-04-24T15:25:31;3.40;;;2.60;;
7306;SDS011;3694;48.732;9.248;2023-04-24T15:27:57;3.70;;;2.97;;
7306;SDS011;3694;48.732;9.248;2023-04-24T15:30:24;5.60;;;3.80;;
7306;SDS011;3694;48.732;9.248;2023-04-24T15:32:49;4.40;;;2.40;;
7306;SDS011;3694;48.732;9.248;2023-04-24T15:35:15;3.53;;;2.70;;
7306;SDS011;3694;48.732;9.248;2023-04-24T15:37:41;2.30;;;2.10;;
7306;SDS011;3694;48.732;9.248;2023-04-24T15:40:07;2.07;;;1.40;;
7306;SDS011;3694;48.732;9.248;2023-04-24T15:42:33;1.33;;;1.23;;
7306;SDS011;3694;48.732;9.248;2023-04-24T15:44:59;2.93;;;1.10;;
7306;SDS011;3694;48.732;9.248;2023-04-24T15:47:25;2.23;;;1.23;;
7306;SDS011;3694;48.732;9.248;2023-04-24T15:49:51;0.90;;;0.90;;
7306;SDS011;3694;48.732;9.248;2023-04-24T15:52:20;5.17;;;3.00;;
7306;SDS011;3694;48.732;9.248;2023-04-24T15:54:58;2.00;;;1.70;;
7306;SDS011;3694;48.732;9.248;2023-04-24T15:57:27;2.63;;;1.87;;
7306;SDS011;3694;48.732;9.248;2023-04-24T15:59:56;2.00;;;1.80;;
7306;SDS011;3694;48.732;9.248;2023-04-24T16:02:22;9.93;;;5.67;;
7306;SDS011;3694;48.732;9.248;2023-04-24T16:04:51;5.40;;;2.93;;